SWA4079 KSJC-KSAN
Flight info
| Callsign | SWA4079 |
|---|---|
| Flight time | 1h 0m |
| Altitude | 39000 |
| Route | SPTNS1 VLREE EBAYE AVE FIM J1 LAX COMIX2 |
| Aircraft | B737/M-SADE2E3GIJ4RWZ/LB1D1 |
Departure
| Time | 2026-05-06 00:00 |
|---|---|
| Airport | Norman Y. Mineta San Jose International Airport (KSJC) |
Arrival
| Time | 2026-05-06 01:00 |
|---|---|
| Airport | San Diego International Airport (KSAN) |
| Time | Latitude | Longitude | Altitude | Speed | Heading |
|---|---|---|---|---|---|
| 2026-05-05 23:39 | 37.36496 | -121.92531 | 53 ft | 0 kts | 49° |
| 2026-05-05 23:52 | 37.36490 | -121.92540 | 52 ft | 4 kts | 47° |
| 2026-05-05 23:52 | 37.36472 | -121.92563 | 61 ft | 4 kts | 45° |
| 2026-05-05 23:52 | 37.36455 | -121.92586 | 55 ft | 4 kts | 58° |
| 2026-05-05 23:53 | 37.36448 | -121.92607 | 58 ft | 3 kts | 130° |
| 2026-05-05 23:53 | 37.36450 | -121.92610 | 58 ft | 1 kts | 139° |
| 2026-05-05 23:55 | 37.36449 | -121.92610 | 61 ft | 1 kts | 139° |
| 2026-05-05 23:55 | 37.36439 | -121.92597 | 59 ft | 4 kts | 137° |
| 2026-05-05 23:55 | 37.36407 | -121.92562 | 56 ft | 9 kts | 139° |
| 2026-05-05 23:55 | 37.36347 | -121.92497 | 57 ft | 14 kts | 139° |
| 2026-05-05 23:56 | 37.36262 | -121.92405 | 56 ft | 18 kts | 139° |
| 2026-05-05 23:56 | 37.36157 | -121.92289 | 59 ft | 22 kts | 139° |
| 2026-05-05 23:56 | 37.36040 | -121.92161 | 61 ft | 22 kts | 139° |
| 2026-05-05 23:56 | 37.35926 | -121.92036 | 54 ft | 21 kts | 139° |
| 2026-05-05 23:57 | 37.35816 | -121.91914 | 61 ft | 21 kts | 139° |
| 2026-05-05 23:57 | 37.35707 | -121.91797 | 59 ft | 20 kts | 139° |
| 2026-05-05 23:57 | 37.35604 | -121.91682 | 58 ft | 20 kts | 139° |
| 2026-05-05 23:57 | 37.35503 | -121.91572 | 55 ft | 19 kts | 139° |
| 2026-05-05 23:58 | 37.35405 | -121.91465 | 61 ft | 18 kts | 139° |
| 2026-05-05 23:58 | 37.35317 | -121.91434 | 61 ft | 12 kts | 219° |
| 2026-05-05 23:58 | 37.35264 | -121.91510 | 58 ft | 9 kts | 229° |
| 2026-05-05 23:58 | 37.35270 | -121.91572 | 58 ft | 5 kts | 315° |
| 2026-05-05 23:59 | 37.35271 | -121.91573 | 59 ft | 0 kts | 316° |
| 2026-05-05 23:59 | 37.35285 | -121.91590 | 63 ft | 17 kts | 317° |
| 2026-05-05 23:59 | 37.35604 | -121.91938 | 61 ft | 103 kts | 319° |
| 2026-05-05 23:59 | 37.36321 | -121.92746 | 110 ft | 167 kts | 319° |
| 2026-05-06 00:00 | 37.37226 | -121.93788 | 809 ft | 182 kts | 318° |
| 2026-05-06 00:00 | 37.38161 | -121.94881 | 1723 ft | 188 kts | 317° |
| 2026-05-06 00:00 | 37.39173 | -121.96056 | 2269 ft | 209 kts | 316° |
| 2026-05-06 00:00 | 37.40341 | -121.97341 | 2633 ft | 239 kts | 324° |
| 2026-05-06 00:01 | 37.41978 | -121.97980 | 3210 ft | 257 kts | 2° |
| 2026-05-06 00:01 | 37.43640 | -121.97215 | 4152 ft | 262 kts | 38° |
| 2026-05-06 00:01 | 37.44723 | -121.95396 | 5031 ft | 266 kts | 68° |
| 2026-05-06 00:01 | 37.45004 | -121.93118 | 6212 ft | 267 kts | 93° |
| 2026-05-06 00:02 | 37.44485 | -121.90840 | 7243 ft | 278 kts | 122° |
| 2026-05-06 00:02 | 37.43117 | -121.89109 | 8418 ft | 282 kts | 141° |
| 2026-05-06 00:02 | 37.41541 | -121.87586 | 9450 ft | 290 kts | 142° |
| 2026-05-06 00:02 | 37.39917 | -121.86031 | 10452 ft | 298 kts | 141° |
| 2026-05-06 00:03 | 37.38215 | -121.84343 | 10870 ft | 328 kts | 139° |
| 2026-05-06 00:03 | 37.36369 | -121.82448 | 11228 ft | 355 kts | 138° |
| 2026-05-06 00:03 | 37.34439 | -121.80439 | 12075 ft | 364 kts | 137° |
| 2026-05-06 00:03 | 37.32476 | -121.78387 | 13028 ft | 369 kts | 136° |
| 2026-05-06 00:04 | 37.30536 | -121.76254 | 14001 ft | 373 kts | 134° |
| 2026-05-06 00:04 | 37.28603 | -121.74050 | 14954 ft | 377 kts | 134° |
| 2026-05-06 00:04 | 37.26655 | -121.71809 | 15868 ft | 382 kts | 133° |
| 2026-05-06 00:04 | 37.24677 | -121.69540 | 16751 ft | 387 kts | 133° |
| 2026-05-06 00:05 | 37.20647 | -121.64947 | 18467 ft | 396 kts | 133° |
| 2026-05-06 00:05 | 37.18590 | -121.62616 | 19275 ft | 401 kts | 133° |
| 2026-05-06 00:05 | 37.16508 | -121.60262 | 20058 ft | 405 kts | 133° |
| 2026-05-06 00:06 | 37.14406 | -121.57889 | 20819 ft | 409 kts | 133° |
| 2026-05-06 00:06 | 37.12277 | -121.55487 | 21552 ft | 414 kts | 133° |
| 2026-05-06 00:06 | 37.10123 | -121.53057 | 22261 ft | 418 kts | 133° |
| 2026-05-06 00:06 | 37.07948 | -121.50607 | 22909 ft | 423 kts | 133° |
| 2026-05-06 00:07 | 37.05745 | -121.48135 | 23568 ft | 427 kts | 133° |
| 2026-05-06 00:07 | 37.03501 | -121.45699 | 24299 ft | 429 kts | 134° |
| 2026-05-06 00:07 | 37.01215 | -121.43265 | 24948 ft | 432 kts | 134° |
| 2026-05-06 00:07 | 36.98912 | -121.40829 | 25550 ft | 435 kts | 133° |
| 2026-05-06 00:08 | 36.96593 | -121.38377 | 26112 ft | 438 kts | 133° |
| 2026-05-06 00:08 | 36.94263 | -121.35908 | 26689 ft | 440 kts | 133° |
| 2026-05-06 00:08 | 36.91923 | -121.33422 | 27232 ft | 443 kts | 132° |
| 2026-05-06 00:08 | 36.89571 | -121.30922 | 27723 ft | 446 kts | 132° |
| 2026-05-06 00:09 | 36.87199 | -121.28402 | 28244 ft | 448 kts | 132° |
| 2026-05-06 00:09 | 36.84823 | -121.25881 | 28796 ft | 449 kts | 131° |
| 2026-05-06 00:09 | 36.82444 | -121.23356 | 29277 ft | 450 kts | 131° |
| 2026-05-06 00:09 | 36.80055 | -121.20824 | 29745 ft | 451 kts | 131° |
| 2026-05-06 00:10 | 36.77657 | -121.18285 | 30137 ft | 454 kts | 131° |
| 2026-05-06 00:10 | 36.75244 | -121.15729 | 30534 ft | 456 kts | 130° |
| 2026-05-06 00:10 | 36.72818 | -121.13157 | 30862 ft | 459 kts | 131° |
| 2026-05-06 00:10 | 36.70372 | -121.10573 | 31199 ft | 462 kts | 131° |
| 2026-05-06 00:11 | 36.67921 | -121.07989 | 31653 ft | 461 kts | 131° |
| 2026-05-06 00:11 | 36.65472 | -121.05412 | 32149 ft | 460 kts | 131° |
| 2026-05-06 00:11 | 36.63063 | -121.02876 | 32606 ft | 460 kts | 131° |
| 2026-05-06 00:11 | 36.60623 | -121.00307 | 33022 ft | 460 kts | 131° |
| 2026-05-06 00:12 | 36.58128 | -120.97729 | 33456 ft | 460 kts | 132° |
| 2026-05-06 00:12 | 36.55680 | -120.95238 | 33850 ft | 461 kts | 132° |
| 2026-05-06 00:12 | 36.53194 | -120.92724 | 34238 ft | 460 kts | 133° |
| 2026-05-06 00:12 | 36.50709 | -120.90214 | 34610 ft | 460 kts | 133° |
| 2026-05-06 00:13 | 36.48228 | -120.87706 | 34927 ft | 461 kts | 133° |
| 2026-05-06 00:13 | 36.45740 | -120.85187 | 35235 ft | 461 kts | 133° |
| 2026-05-06 00:13 | 36.43250 | -120.82666 | 35544 ft | 462 kts | 133° |
| 2026-05-06 00:13 | 36.40756 | -120.80141 | 35842 ft | 463 kts | 133° |
| 2026-05-06 00:14 | 36.38260 | -120.77615 | 36121 ft | 463 kts | 134° |
| 2026-05-06 00:14 | 36.35762 | -120.75088 | 36390 ft | 464 kts | 134° |
| 2026-05-06 00:14 | 36.33259 | -120.72558 | 36621 ft | 466 kts | 134° |
| 2026-05-06 00:14 | 36.31593 | -120.70876 | 36805 ft | 466 kts | 134° |
| 2026-05-06 00:15 | 36.29082 | -120.68340 | 37177 ft | 464 kts | 135° |
| 2026-05-06 00:15 | 36.26581 | -120.65821 | 37522 ft | 463 kts | 135° |
| 2026-05-06 00:15 | 36.24081 | -120.63308 | 37804 ft | 462 kts | 135° |
| 2026-05-06 00:15 | 36.21582 | -120.60793 | 38069 ft | 463 kts | 135° |
| 2026-05-06 00:16 | 36.19084 | -120.58283 | 38371 ft | 462 kts | 136° |
| 2026-05-06 00:16 | 36.16592 | -120.55782 | 38629 ft | 462 kts | 136° |
| 2026-05-06 00:16 | 36.14087 | -120.53267 | 38803 ft | 464 kts | 136° |
| 2026-05-06 00:16 | 36.11580 | -120.50749 | 38947 ft | 466 kts | 136° |
| 2026-05-06 00:17 | 36.09061 | -120.48226 | 39037 ft | 466 kts | 137° |
| 2026-05-06 00:17 | 36.04004 | -120.43160 | 39055 ft | 468 kts | 137° |
| 2026-05-06 00:18 | 35.98957 | -120.38116 | 39051 ft | 466 kts | 137° |
| 2026-05-06 00:18 | 35.93919 | -120.33086 | 39056 ft | 466 kts | 137° |
| 2026-05-06 00:19 | 35.88885 | -120.28078 | 39056 ft | 464 kts | 137° |
| 2026-05-06 00:19 | 35.84135 | -120.22736 | 39067 ft | 461 kts | 130° |
| 2026-05-06 00:20 | 35.79706 | -120.17013 | 39058 ft | 462 kts | 130° |
| 2026-05-06 00:20 | 35.75258 | -120.11289 | 39053 ft | 464 kts | 130° |
| 2026-05-06 00:21 | 35.70768 | -120.05583 | 39057 ft | 464 kts | 130° |
| 2026-05-06 00:21 | 35.66267 | -119.99888 | 39053 ft | 465 kts | 130° |
| 2026-05-06 00:22 | 35.61322 | -119.94704 | 39060 ft | 471 kts | 141° |
| 2026-05-06 00:22 | 35.55928 | -119.90117 | 39046 ft | 472 kts | 143° |
| 2026-05-06 00:23 | 35.50512 | -119.85573 | 39043 ft | 471 kts | 142° |
| 2026-05-06 00:23 | 35.45134 | -119.80985 | 39048 ft | 471 kts | 142° |
| 2026-05-06 00:24 | 35.39804 | -119.76394 | 39046 ft | 472 kts | 142° |
| 2026-05-06 00:24 | 35.34432 | -119.71761 | 39044 ft | 472 kts | 142° |
| 2026-05-06 00:25 | 35.29051 | -119.67127 | 39033 ft | 473 kts | 143° |
| 2026-05-06 00:25 | 35.23660 | -119.62502 | 39039 ft | 473 kts | 143° |
| 2026-05-06 00:26 | 35.18274 | -119.57894 | 39034 ft | 473 kts | 143° |
| 2026-05-06 00:26 | 35.12883 | -119.53289 | 39039 ft | 473 kts | 144° |
| 2026-05-06 00:27 | 35.07481 | -119.48680 | 39032 ft | 474 kts | 144° |
| 2026-05-06 00:27 | 35.02076 | -119.44070 | 39026 ft | 475 kts | 144° |
| 2026-05-06 00:28 | 34.96662 | -119.39461 | 39031 ft | 475 kts | 144° |
| 2026-05-06 00:28 | 34.91243 | -119.34857 | 39031 ft | 475 kts | 144° |
| 2026-05-06 00:29 | 34.85814 | -119.30253 | 39028 ft | 475 kts | 145° |
| 2026-05-06 00:29 | 34.80382 | -119.25659 | 39038 ft | 475 kts | 145° |
| 2026-05-06 00:30 | 34.74956 | -119.21069 | 39032 ft | 475 kts | 145° |
| 2026-05-06 00:30 | 34.69527 | -119.16487 | 39032 ft | 475 kts | 145° |
| 2026-05-06 00:31 | 34.64098 | -119.11914 | 39037 ft | 475 kts | 146° |
| 2026-05-06 00:31 | 34.58667 | -119.07345 | 39038 ft | 475 kts | 146° |
| 2026-05-06 00:32 | 34.53235 | -119.02782 | 39045 ft | 475 kts | 146° |
| 2026-05-06 00:32 | 34.47801 | -118.98226 | 39030 ft | 475 kts | 146° |
| 2026-05-06 00:33 | 34.42367 | -118.93674 | 39032 ft | 475 kts | 146° |
| 2026-05-06 00:33 | 34.36935 | -118.89133 | 39025 ft | 475 kts | 146° |
| 2026-05-06 00:34 | 34.31797 | -118.84113 | 39032 ft | 475 kts | 139° |
| 2026-05-06 00:34 | 34.26903 | -118.78820 | 39022 ft | 475 kts | 139° |
| 2026-05-06 00:35 | 34.21969 | -118.73509 | 39014 ft | 475 kts | 140° |
| 2026-05-06 00:35 | 34.17012 | -118.68235 | 39023 ft | 474 kts | 140° |
| 2026-05-06 00:36 | 34.12049 | -118.62982 | 39022 ft | 474 kts | 140° |
| 2026-05-06 00:36 | 34.07093 | -118.57744 | 39016 ft | 474 kts | 141° |
| 2026-05-06 00:37 | 34.02135 | -118.52510 | 39027 ft | 473 kts | 141° |
| 2026-05-06 00:37 | 33.97178 | -118.47283 | 39026 ft | 473 kts | 141° |
| 2026-05-06 00:38 | 33.92270 | -118.42014 | 39023 ft | 474 kts | 138° |
| 2026-05-06 00:38 | 33.87766 | -118.36198 | 39032 ft | 476 kts | 135° |
| 2026-05-06 00:38 | 33.85539 | -118.33214 | 38533 ft | 483 kts | 135° |
| 2026-05-06 00:39 | 33.83281 | -118.30225 | 37925 ft | 481 kts | 135° |
| 2026-05-06 00:39 | 33.81012 | -118.27267 | 37222 ft | 480 kts | 135° |
| 2026-05-06 00:39 | 33.78742 | -118.24334 | 36511 ft | 479 kts | 135° |
| 2026-05-06 00:39 | 33.76474 | -118.21407 | 35728 ft | 479 kts | 135° |
| 2026-05-06 00:40 | 33.74211 | -118.18449 | 34810 ft | 482 kts | 134° |
| 2026-05-06 00:40 | 33.71951 | -118.15475 | 33954 ft | 483 kts | 134° |
| 2026-05-06 00:40 | 33.69682 | -118.12484 | 33024 ft | 485 kts | 134° |
| 2026-05-06 00:40 | 33.67408 | -118.09489 | 32067 ft | 486 kts | 134° |
| 2026-05-06 00:41 | 33.65123 | -118.06488 | 31180 ft | 486 kts | 133° |
| 2026-05-06 00:41 | 33.62859 | -118.03520 | 30492 ft | 480 kts | 133° |
| 2026-05-06 00:41 | 33.60619 | -118.00589 | 29790 ft | 473 kts | 133° |
| 2026-05-06 00:41 | 33.58409 | -117.97698 | 29088 ft | 467 kts | 133° |
| 2026-05-06 00:42 | 33.56229 | -117.94849 | 28387 ft | 460 kts | 133° |
| 2026-05-06 00:42 | 33.54049 | -117.92072 | 27684 ft | 454 kts | 135° |
| 2026-05-06 00:42 | 33.51809 | -117.89439 | 26979 ft | 448 kts | 137° |
| 2026-05-06 00:42 | 33.49564 | -117.86890 | 26283 ft | 442 kts | 137° |
| 2026-05-06 00:43 | 33.47343 | -117.84364 | 25587 ft | 437 kts | 137° |
| 2026-05-06 00:43 | 33.45163 | -117.81854 | 24891 ft | 432 kts | 136° |
| 2026-05-06 00:43 | 33.43008 | -117.79377 | 24160 ft | 428 kts | 137° |
| 2026-05-06 00:43 | 33.40816 | -117.76994 | 23425 ft | 424 kts | 139° |
| 2026-05-06 00:44 | 33.38616 | -117.74673 | 22730 ft | 419 kts | 139° |
| 2026-05-06 00:44 | 33.36436 | -117.72383 | 22043 ft | 415 kts | 139° |
| 2026-05-06 00:44 | 33.34285 | -117.70114 | 21367 ft | 410 kts | 139° |
| 2026-05-06 00:44 | 33.32165 | -117.67863 | 20697 ft | 406 kts | 139° |
| 2026-05-06 00:45 | 33.30069 | -117.65630 | 20040 ft | 401 kts | 139° |
| 2026-05-06 00:45 | 33.28000 | -117.63424 | 19379 ft | 397 kts | 139° |
| 2026-05-06 00:45 | 33.25945 | -117.61234 | 18721 ft | 393 kts | 139° |
| 2026-05-06 00:45 | 33.23913 | -117.59076 | 18267 ft | 389 kts | 139° |
| 2026-05-06 00:46 | 33.21920 | -117.56976 | 18128 ft | 379 kts | 139° |
| 2026-05-06 00:46 | 33.19956 | -117.54911 | 17724 ft | 368 kts | 139° |
| 2026-05-06 00:46 | 33.18030 | -117.52888 | 16675 ft | 370 kts | 139° |
| 2026-05-06 00:46 | 33.16095 | -117.50854 | 15594 ft | 372 kts | 139° |
| 2026-05-06 00:47 | 33.14165 | -117.48828 | 14868 ft | 364 kts | 140° |
| 2026-05-06 00:47 | 33.12189 | -117.47019 | 14452 ft | 351 kts | 146° |
| 2026-05-06 00:47 | 33.10184 | -117.45372 | 14192 ft | 357 kts | 146° |
| 2026-05-06 00:47 | 33.08102 | -117.43666 | 13451 ft | 366 kts | 146° |
| 2026-05-06 00:48 | 33.06035 | -117.41956 | 12763 ft | 355 kts | 146° |
| 2026-05-06 00:48 | 33.04028 | -117.40286 | 12109 ft | 354 kts | 146° |
| 2026-05-06 00:48 | 33.02005 | -117.38590 | 11342 ft | 356 kts | 146° |
| 2026-05-06 00:48 | 32.99986 | -117.36894 | 10824 ft | 350 kts | 146° |
| 2026-05-06 00:49 | 32.98047 | -117.35263 | 10597 ft | 335 kts | 146° |
| 2026-05-06 00:49 | 32.96177 | -117.33693 | 10320 ft | 324 kts | 146° |
| 2026-05-06 00:49 | 32.94361 | -117.32174 | 10041 ft | 314 kts | 146° |
| 2026-05-06 00:49 | 32.92597 | -117.30696 | 9749 ft | 306 kts | 146° |
| 2026-05-06 00:50 | 32.90877 | -117.29258 | 9470 ft | 298 kts | 146° |
| 2026-05-06 00:50 | 32.89198 | -117.27863 | 9194 ft | 291 kts | 146° |
| 2026-05-06 00:50 | 32.87558 | -117.26500 | 8939 ft | 284 kts | 146° |
| 2026-05-06 00:50 | 32.85965 | -117.25179 | 8678 ft | 274 kts | 146° |
| 2026-05-06 00:51 | 32.84434 | -117.23908 | 8407 ft | 264 kts | 146° |
| 2026-05-06 00:51 | 32.82938 | -117.22665 | 8088 ft | 262 kts | 146° |
| 2026-05-06 00:51 | 32.81528 | -117.21310 | 7752 ft | 262 kts | 129° |
| 2026-05-06 00:51 | 32.80712 | -117.19393 | 7448 ft | 261 kts | 108° |
| 2026-05-06 00:52 | 32.80233 | -117.17318 | 7117 ft | 260 kts | 104° |
| 2026-05-06 00:52 | 32.79804 | -117.15234 | 6787 ft | 259 kts | 104° |
| 2026-05-06 00:52 | 32.79365 | -117.13159 | 6462 ft | 258 kts | 104° |
| 2026-05-06 00:52 | 32.78918 | -117.11100 | 6246 ft | 254 kts | 105° |
| 2026-05-06 00:53 | 32.78479 | -117.09110 | 6118 ft | 245 kts | 105° |
| 2026-05-06 00:53 | 32.78048 | -117.07180 | 6013 ft | 239 kts | 105° |
| 2026-05-06 00:53 | 32.77613 | -117.05298 | 5859 ft | 236 kts | 106° |
| 2026-05-06 00:53 | 32.77159 | -117.03426 | 5680 ft | 235 kts | 106° |
| 2026-05-06 00:54 | 32.76707 | -117.01574 | 5497 ft | 233 kts | 106° |
| 2026-05-06 00:54 | 32.76252 | -116.99712 | 5297 ft | 236 kts | 106° |
| 2026-05-06 00:54 | 32.75745 | -116.97843 | 5039 ft | 241 kts | 114° |
| 2026-05-06 00:54 | 32.74768 | -116.96281 | 4755 ft | 238 kts | 142° |
| 2026-05-06 00:55 | 32.73323 | -116.95415 | 4464 ft | 232 kts | 170° |
| 2026-05-06 00:55 | 32.71748 | -116.95432 | 4220 ft | 225 kts | 196° |
| 2026-05-06 00:55 | 32.70355 | -116.96202 | 3965 ft | 220 kts | 218° |
| 2026-05-06 00:55 | 32.69335 | -116.97511 | 3706 ft | 216 kts | 241° |
| 2026-05-06 00:56 | 32.68822 | -116.99172 | 3413 ft | 215 kts | 263° |
| 2026-05-06 00:56 | 32.68914 | -117.00891 | 3137 ft | 204 kts | 286° |
| 2026-05-06 00:56 | 32.69331 | -117.02454 | 2886 ft | 194 kts | 286° |
| 2026-05-06 00:56 | 32.69701 | -117.03950 | 2640 ft | 185 kts | 286° |
| 2026-05-06 00:57 | 32.70054 | -117.05391 | 2404 ft | 178 kts | 286° |
| 2026-05-06 00:57 | 32.70399 | -117.06802 | 2193 ft | 178 kts | 285° |
| 2026-05-06 00:57 | 32.70741 | -117.08203 | 1953 ft | 173 kts | 286° |
| 2026-05-06 00:57 | 32.71065 | -117.09526 | 1707 ft | 160 kts | 285° |
| 2026-05-06 00:58 | 32.71351 | -117.10706 | 1480 ft | 140 kts | 285° |
| 2026-05-06 00:58 | 32.71607 | -117.11758 | 1267 ft | 127 kts | 286° |
| 2026-05-06 00:58 | 32.71843 | -117.12743 | 1057 ft | 123 kts | 285° |
| 2026-05-06 00:58 | 32.72082 | -117.13719 | 845 ft | 125 kts | 285° |
| 2026-05-06 00:59 | 32.72323 | -117.14712 | 696 ft | 125 kts | 285° |
| 2026-05-06 00:59 | 32.72561 | -117.15707 | 549 ft | 125 kts | 285° |
| 2026-05-06 00:59 | 32.72805 | -117.16698 | 367 ft | 125 kts | 286° |
| 2026-05-06 00:59 | 32.72967 | -117.17365 | 217 ft | 124 kts | 286° |
| 2026-05-06 01:00 | 32.73199 | -117.18309 | 27 ft | 113 kts | 286° |
| 2026-05-06 01:00 | 32.73379 | -117.19059 | 21 ft | 67 kts | 286° |
| 2026-05-06 01:00 | 32.73447 | -117.19342 | 23 ft | 16 kts | 283° |
| 2026-05-06 01:00 | 32.73431 | -117.19472 | 23 ft | 16 kts | 252° |
| 2026-05-06 01:01 | 32.73407 | -117.19599 | 22 ft | 15 kts | 275° |
| 2026-05-06 01:01 | 32.73435 | -117.19720 | 22 ft | 15 kts | 286° |
| 2026-05-06 01:01 | 32.73463 | -117.19835 | 22 ft | 14 kts | 286° |
| 2026-05-06 01:01 | 32.73490 | -117.19945 | 24 ft | 14 kts | 285° |
| 2026-05-06 01:02 | 32.73515 | -117.20051 | 23 ft | 13 kts | 286° |
| 2026-05-06 01:02 | 32.73517 | -117.20134 | 24 ft | 8 kts | 223° |
| 2026-05-06 01:02 | 32.73475 | -117.20138 | 22 ft | 5 kts | 168° |
| 2026-05-06 01:02 | 32.73434 | -117.20126 | 23 ft | 7 kts | 166° |
| 2026-05-06 01:03 | 32.73413 | -117.20120 | 22 ft | 1 kts | 166° |
| 2026-05-06 01:03 | 32.73412 | -117.20119 | 22 ft | 0 kts | 166° |